Weather reports worldwide

Advertisment
Genthin, Germany (10365): temperature & dewpoint: 12.10.2018 19:00:00 - 18.10.2018 19:00:00 (CEST)Genthin, Germany (10365): temperature 5cm & temperature -5cm: 12.10.2018 19:00:00 - 18.10.2018 19:00:00 (CEST)Genthin, Germany (10365): temperature -20cm & temperature -100cm: 12.10.2018 19:00:00 - 18.10.2018 19:00:00 (CEST)Genthin, Germany (10365): wind speed & gusts: 12.10.2018 19:00:00 - 18.10.2018 19:00:00 (CEST)Genthin, Germany (10365): wind direction: 12.10.2018 19:00:00 - 18.10.2018 19:00:00 (CEST)Genthin, Germany (10365): reduced air pressure: 12.10.2018 19:00:00 - 18.10.2018 19:00:00 (CEST)Genthin, Germany (10365): sunshine duration: 12.10.2018 19:00:00 - 18.10.2018 19:00:00 (CEST)Genthin, Germany (10365): precipitation: 12.10.2018 19:00:00 - 18.10.2018 19:00:00 (CEST)
Date & Time tt [°C] td [°C] tt 5cm [°C] tt -5cm [°C] tt -20cm [°C] tt -100cm [°C] ff [km/h] ff [kn] fx [km/h] fx [kn] dd ppp [hPa] sd [min] rr [mm]
18.10.2018 19:00:00 13,2 12,2 - - - - 6 3 15 8 NW 1023,1 0 -
18.10.2018 18:00:00 13,4 12,4 13,0 13,7 13,6 14,6 12 6 27 14 N 1022,4 0 0,0
18.10.2018 17:00:00 13,6 12,6 13,4 13,9 13,4 14,6 12 6 24 13 NNW 1022,1 0 0,0
18.10.2018 16:00:00 14,8 12,0 15,1 14,1 13,3 14,7 6 3 13 7 NW 1021,8 0 0,0
18.10.2018 15:00:00 14,4 11,9 14,9 13,9 13,1 14,7 10 5 16 9 NNW 1021,8 0 0,0
18.10.2018 14:00:00 13,7 11,8 14,9 13,4 12,9 14,7 9 5 17 9 NNW 1021,8 0 0,0
18.10.2018 13:00:00 12,8 11,8 13,6 12,9 12,7 14,7 10 5 17 9 NNW 1022,1 0 0,0
18.10.2018 12:00:00 11,9 11,4 12,7 12,4 12,6 14,7 11 6 21 11 NNW 1022,0 0 0,0
18.10.2018 11:00:00 11,4 11,0 12,0 11,9 12,4 14,7 15 8 20 11 NW 1021,6 0 0,0
18.10.2018 10:00:00 10,9 10,6 11,4 11,3 12,4 14,7 10 5 17 9 NW 1021,4 0 0,0
18.10.2018 09:00:00 10,1 10,0 10,4 10,1 12,5 14,7 9 5 17 9 NW 1021,1 0 0,0
18.10.2018 08:00:00 5,6 5,0 6,2 9,4 12,6 14,6 2 1 5 3 W 1020,6 0 0,0
18.10.2018 07:00:00 5,0 4,3 4,2 9,5 12,8 14,6 3 1 4 2 SE 1020,0 0 0,0
18.10.2018 06:00:00 4,5 3,9 3,3 9,3 13,1 14,6 2 1 3 2 WSW 1019,8 0 0,0
18.10.2018 05:00:00 4,1 3,5 2,6 9,5 13,4 14,6 1 1 5 3 S 1019,7 0 0,0
18.10.2018 04:00:00 4,7 4,4 1,6 9,9 13,7 14,6 0 0 5 3 N 1019,6 0 0,0
18.10.2018 03:00:00 4,0 3,3 2,6 10,3 14,0 14,6 2 1 4 2 SE 1019,7 0 0,0
18.10.2018 02:00:00 6,4 5,7 2,9 10,8 14,4 14,6 3 1 5 3 W 1019,8 0 0,0
18.10.2018 01:00:00 6,4 5,9 4,0 11,3 14,8 14,6 2 1 4 2 S 1019,8 0 0,0
18.10.2018 00:00:00 7,1 6,3 3,7 11,9 15,1 14,6 1 1 4 2 SW 1019,8 0 0,0
17.10.2018 23:00:00 7,8 7,1 4,3 12,6 15,5 14,6 2 1 4 2 SE 1019,6 0 0,0
17.10.2018 22:00:00 8,7 7,3 5,1 13,4 15,9 14,6 0 0 3 2 N 1019,7 0 0,0
17.10.2018 21:00:00 9,7 8,2 5,7 14,3 16,3 14,6 0 0 2 1 N 1019,5 0 0,0
17.10.2018 20:00:00 11,2 8,5 6,5 15,5 16,6 14,6 1 1 3 2 W 1019,2 0 0,0
17.10.2018 19:00:00 13,2 9,2 8,3 17,0 16,8 14,6 0 0 4 2 N 1018,8 0 0,0
17.10.2018 18:00:00 17,3 9,0 12,9 18,9 16,7 14,6 5 3 8 5 NNE 1018,5 40 0,0
17.10.2018 17:00:00 20,5 8,3 22,1 20,2 16,4 14,6 6 3 14 7 NNE 1018,3 60 0,0
17.10.2018 16:00:00 21,3 7,6 23,7 20,7 15,8 14,6 3 2 8 4 NNW 1018,3 60 0,0
17.10.2018 15:00:00 21,1 7,6 23,6 20,3 15,2 14,6 3 2 11 6 W 1018,4 60 0,0
17.10.2018 14:00:00 20,2 8,4 23,6 19,4 14,5 14,6 7 4 12 6 E 1018,9 60 0,0
17.10.2018 13:00:00 19,3 7,8 24,2 17,6 13,9 14,6 2 1 7 4 ENE 1019,2 60 0,0
17.10.2018 12:00:00 17,3 8,7 21,4 15,3 13,5 14,6 3 2 9 5 N 1019,5 60 0,0
17.10.2018 11:00:00 14,2 9,1 16,9 13,1 13,4 14,6 4 2 7 4 E 1019,7 60 0,0
17.10.2018 10:00:00 11,1 7,5 12,7 11,4 13,5 14,6 2 1 4 2 E 1019,9 60 0,0
17.10.2018 09:00:00 7,6 5,8 8,2 10,5 13,7 14,6 0 0 4 2 N 1019,8 22 0,0
17.10.2018 08:00:00 5,9 5,6 3,2 10,6 14,0 14,6 1 1 4 2 SSE 1019,5 0 0,0
17.10.2018 07:00:00 6,4 5,9 3,0 11,2 14,3 14,6 1 1 3 2 SSE 1019,3 0 0,0
17.10.2018 06:00:00 7,4 6,7 4,7 11,9 14,6 14,6 3 2 5 3 SSE 1019,3 0 0,0
17.10.2018 05:00:00 9,4 7,8 5,6 12,7 14,8 14,6 2 1 3 2 W 1018,8 0 0,0
17.10.2018 04:00:00 10,9 8,6 10,0 13,3 15,0 14,6 3 1 6 3 W 1018,8 0 0,0
17.10.2018 03:00:00 10,7 8,4 10,2 13,6 15,2 14,6 3 1 6 3 SE 1019,3 0 0,0
17.10.2018 02:00:00 10,9 8,3 10,6 13,6 15,4 14,6 0 0 5 3 N 1019,1 0 0,0
17.10.2018 01:00:00 9,2 7,5 9,2 13,6 15,7 14,6 6 3 8 4 ESE 1019,3 0 0,0
17.10.2018 00:00:00 10,9 8,1 8,0 14,0 16,0 14,6 4 2 7 4 WNW 1019,6 0 0,0
16.10.2018 23:00:00 11,7 8,5 8,0 15,0 16,3 14,6 0 0 4 2 N 1019,4 0 0,0
16.10.2018 22:00:00 12,6 9,1 10,7 15,8 16,6 14,6 2 1 4 2 ESE 1019,3 0 0,0
16.10.2018 21:00:00 14,2 9,6 12,2 16,5 16,8 14,6 0 0 5 3 N 1019,3 0 0,0
16.10.2018 20:00:00 15,4 10,1 12,5 17,5 17,0 14,6 0 0 5 3 N 1019,3 0 0,0
16.10.2018 19:00:00 17,4 9,5 14,7 18,6 17,0 14,6 0 0 5 3 N 1018,8 0 0,0
16.10.2018 18:00:00 20,3 9,5 19,4 19,8 16,8 14,6 4 2 9 5 ENE 1018,3 42 0,0
16.10.2018 17:00:00 21,7 7,6 23,5 20,4 16,5 14,6 5 3 12 7 N 1018,0 37 0,0
16.10.2018 16:00:00 22,4 7,0 25,2 21,1 15,9 14,6 6 3 13 7 NW 1018,0 60 0,0
16.10.2018 15:00:00 22,3 7,6 25,4 20,8 15,3 14,6 3 2 13 7 NNW 1018,0 60 0,0
16.10.2018 14:00:00 21,3 6,9 25,6 19,8 14,6 14,6 5 3 11 6 NNW 1018,1 60 0,0
16.10.2018 13:00:00 20,5 6,7 24,3 18,1 13,9 14,6 6 3 10 5 ENE 1018,1 60 0,0
16.10.2018 12:00:00 18,9 6,5 21,0 16,2 13,5 14,6 3 1 6 3 ENE 1018,3 59 0,0
16.10.2018 11:00:00 16,8 6,2 19,5 14,2 13,2 14,6 2 1 8 4 E 1018,1 47 0,0
16.10.2018 10:00:00 12,4 6,7 13,3 12,3 13,2 14,6 2 1 5 3 ENE 1018,2 5 0,0
16.10.2018 09:00:00 10,0 6,7 10,3 11,5 13,3 14,5 0 0 6 4 N 1017,8 0 0,0
16.10.2018 08:00:00 8,7 6,3 8,5 11,3 13,5 14,5 2 1 7 4 N 1017,6 0 0,0
16.10.2018 07:00:00 8,5 6,1 7,9 11,2 13,6 14,5 0 0 4 2 N 1017,2 0 0,0
16.10.2018 06:00:00 8,4 5,8 7,6 11,1 13,9 14,5 3 1 8 5 W 1017,0 0 0,0
16.10.2018 05:00:00 7,1 5,2 4,7 11,2 14,2 14,5 2 1 4 2 NE 1016,5 0 0,0
16.10.2018 04:00:00 8,2 5,7 4,3 11,8 14,4 14,5 0 0 5 3 N 1016,4 0 0,0
16.10.2018 03:00:00 8,9 6,1 5,8 12,6 14,7 14,5 3 2 4 2 E 1016,3 0 0,0
16.10.2018 02:00:00 11,3 6,7 8,9 13,1 14,8 14,5 2 1 7 4 W 1016,4 0 0,0
16.10.2018 01:00:00 12,1 6,6 10,7 13,5 15,1 14,5 1 1 8 4 N 1016,1 0 0,0
16.10.2018 00:00:00 12,3 6,5 10,7 13,7 15,3 14,5 5 3 8 5 ESE 1016,1 0 0,0
15.10.2018 23:00:00 10,8 6,5 9,8 13,8 15,6 14,5 3 1 6 4 E 1016,1 0 0,0
15.10.2018 22:00:00 10,0 6,2 7,3 14,2 16,0 14,5 4 2 5 3 ESE 1016,0 0 0,0
15.10.2018 21:00:00 12,4 6,9 8,6 15,3 16,2 14,5 3 1 4 2 ENE 1015,9 0 0,0
15.10.2018 20:00:00 14,1 7,0 10,3 16,4 16,5 14,5 4 2 7 4 ENE 1015,8 0 0,0
15.10.2018 19:00:00 17,3 6,7 12,7 17,7 16,5 14,6 3 2 18 10 E 1015,5 0 0,0
15.10.2018 18:00:00 20,4 6,6 18,6 19,3 16,4 14,6 11 6 19 11 SE 1014,8 49 0,0
15.10.2018 17:00:00 22,4 6,2 22,6 20,3 16,0 14,6 14 8 25 13 SE 1014,4 60 0,0
15.10.2018 16:00:00 23,5 6,1 24,7 20,8 15,4 14,6 16 9 26 14 SE 1014,3 60 0,0
15.10.2018 15:00:00 24,0 6,5 26,0 20,5 14,6 14,6 11 6 24 13 S 1014,3 60 0,0
15.10.2018 14:00:00 23,1 6,2 25,8 19,4 13,9 14,6 14 8 23 12 SSE 1014,4 60 0,0
15.10.2018 13:00:00 22,2 6,8 25,1 17,6 13,2 14,6 11 6 21 11 SE 1014,5 60 0,0
15.10.2018 12:00:00 20,4 6,4 23,0 15,3 12,7 14,6 12 6 21 12 SSE 1014,9 60 0,0
15.10.2018 11:00:00 17,9 6,2 20,0 12,7 12,4 14,6 7 4 16 9 SSE 1015,0 60 0,0
15.10.2018 10:00:00 14,1 6,4 15,3 10,5 12,5 14,5 5 3 9 5 SE 1014,9 60 0,0
15.10.2018 09:00:00 8,7 4,9 9,8 9,2 12,7 14,5 3 1 4 2 NNW 1014,8 35 0,0
15.10.2018 08:00:00 5,3 4,2 2,0 9,1 13,0 14,5 0 0 7 4 N 1014,6 0 0,0
15.10.2018 07:00:00 6,5 4,6 2,4 9,5 13,3 14,5 0 0 6 3 N 1014,1 0 0,0
15.10.2018 06:00:00 7,5 5,2 3,0 10,0 13,6 14,5 2 1 5 3 SE 1014,0 0 0,0
15.10.2018 05:00:00 8,6 5,7 4,1 10,7 13,8 14,5 5 3 9 5 ESE 1014,0 0 0,0
15.10.2018 04:00:00 11,0 5,8 6,7 11,2 14,1 14,5 8 5 14 7 SE 1013,7 0 0,0
15.10.2018 03:00:00 13,0 6,4 9,9 11,5 14,3 14,5 8 4 16 8 SSE 1013,6 0 0,0
15.10.2018 02:00:00 13,3 6,6 10,0 11,7 14,7 14,5 9 5 14 8 SSE 1013,5 0 0,0
15.10.2018 01:00:00 11,4 6,4 5,7 12,1 15,0 14,5 6 4 14 8 ESE 1013,5 0 0,0
15.10.2018 00:00:00 11,4 6,6 5,6 12,6 15,4 14,5 5 3 8 4 E 1013,4 0 0,0
14.10.2018 23:00:00 11,7 6,7 6,2 13,4 15,8 14,5 4 2 10 5 SE 1013,5 0 0,0
14.10.2018 22:00:00 13,9 6,6 7,5 14,2 16,1 14,5 6 4 14 8 ESE 1013,5 0 0,0
14.10.2018 21:00:00 16,1 7,2 9,7 15,1 16,5 14,5 8 5 14 8 SE 1013,5 0 0,0
14.10.2018 20:00:00 14,1 7,0 9,4 16,3 16,8 14,5 6 3 11 6 ESE 1013,6 0 0,0
14.10.2018 19:00:00 19,0 6,9 14,2 17,9 16,9 14,5 9 5 22 12 SE 1013,6 0 0,0
14.10.2018 18:00:00 22,2 6,7 20,4 19,6 16,7 14,5 15 8 23 12 SE 1013,4 53 0,0
14.10.2018 17:00:00 23,5 6,9 23,8 20,9 16,4 14,5 12 6 29 16 SSE 1013,3 60 0,0
14.10.2018 16:00:00 23,6 6,7 25,0 21,4 15,8 14,5 17 9 29 16 SSE 1013,5 60 0,0
14.10.2018 15:00:00 23,3 6,8 25,3 21,3 15,1 14,5 18 10 33 18 SE 1013,8 60 0,0
14.10.2018 14:00:00 23,0 7,2 25,6 20,4 14,3 14,5 15 8 30 16 SSE 1014,1 60 0,0
14.10.2018 13:00:00 22,8 6,8 25,5 18,5 13,6 14,5 14 7 27 15 SSE 1014,4 60 0,0
14.10.2018 12:00:00 20,3 7,5 22,6 16,2 13,1 14,5 16 8 27 14 SSE 1014,9 60 0,0
14.10.2018 11:00:00 17,8 8,5 19,7 13,4 12,8 14,5 13 7 19 10 SSE 1015,4 60 0,0
14.10.2018 10:00:00 15,2 8,5 15,9 11,1 12,8 14,5 7 4 13 7 SE 1015,8 60 0,0
14.10.2018 09:00:00 9,1 5,4 10,4 9,7 13,1 14,4 7 4 10 5 ESE 1015,9 38 0,0
14.10.2018 08:00:00 7,8 6,9 2,7 9,6 13,4 14,4 4 2 8 5 ESE 1016,0 0 0,0
14.10.2018 07:00:00 7,5 5,8 4,2 10,2 13,7 14,4 8 4 12 6 ESE 1016,3 0 0,0
14.10.2018 06:00:00 10,6 7,1 6,1 10,8 14,0 14,4 8 4 17 9 ESE 1016,8 0 0,0
14.10.2018 05:00:00 10,7 7,3 7,3 11,2 14,2 14,4 11 6 18 10 ESE 1017,2 0 0,0
14.10.2018 04:00:00 12,7 7,7 10,3 11,6 14,5 14,4 13 7 18 10 ESE 1017,5 0 0,0
14.10.2018 03:00:00 12,4 7,5 8,6 11,9 14,8 14,4 10 5 17 9 ESE 1018,2 0 0,0
14.10.2018 02:00:00 13,0 7,7 9,6 12,3 15,2 14,4 11 6 18 10 ESE 1018,7 0 0,0
14.10.2018 01:00:00 11,8 7,3 6,0 12,9 15,6 14,4 6 3 16 8 ESE 1019,3 0 0,0
14.10.2018 00:00:00 14,9 7,8 12,1 13,5 15,9 14,4 13 7 18 10 ESE 1019,4 0 0,0
13.10.2018 23:00:00 13,8 7,3 9,2 14,2 16,3 14,4 10 5 14 8 ESE 1019,7 0 0,0
13.10.2018 22:00:00 14,9 7,3 10,2 15,1 16,7 14,4 10 5 15 8 ESE 1020,0 0 0,0
13.10.2018 21:00:00 16,6 7,5 12,0 16,2 17,1 14,4 10 5 18 10 ESE 1020,3 0 0,0
13.10.2018 20:00:00 19,2 7,6 16,1 17,4 17,4 14,4 12 6 18 10 SE 1020,6 0 0,0
13.10.2018 19:00:00 20,6 7,7 17,2 18,9 17,5 14,4 12 7 18 10 SE 1020,5 0 0,0
13.10.2018 18:00:00 21,7 9,7 18,2 20,9 17,4 14,4 8 5 21 11 ESE 1020,6 56 0,0
13.10.2018 17:00:00 25,2 8,7 25,6 22,4 17,0 14,4 11 6 24 13 SE 1021,1 60 0,0
13.10.2018 16:00:00 26,3 7,8 27,7 23,0 16,3 14,4 16 9 26 14 SE 1021,4 60 0,0
13.10.2018 15:00:00 26,0 7,5 28,0 22,9 15,5 14,4 16 9 27 15 SE 1021,9 60 0,0
13.10.2018 14:00:00 26,1 8,4 28,9 21,8 14,6 14,4 13 7 23 13 SSE 1022,5 60 0,0
13.10.2018 13:00:00 24,8 9,6 27,7 20,0 13,8 14,4 11 6 19 10 SSE 1023,2 60 0,0
13.10.2018 12:00:00 22,8 11,2 25,7 17,3 13,2 14,4 11 6 17 9 SE 1023,7 60 0,0
13.10.2018 11:00:00 19,3 10,6 21,5 14,4 12,8 14,3 11 6 15 8 SE 1024,0 60 0,0
13.10.2018 10:00:00 16,4 9,7 17,8 11,8 12,7 14,3 6 4 10 6 SSE 1024,2 60 0,0
13.10.2018 09:00:00 10,1 7,6 11,8 10,3 12,9 14,3 3 2 5 3 E 1024,4 41 0,0
13.10.2018 08:00:00 7,8 7,6 4,8 10,0 13,1 14,3 3 1 4 2 E 1024,3 0 0,0
13.10.2018 07:00:00 7,8 7,3 4,7 10,3 13,4 14,3 2 1 4 2 ESE 1024,3 0 0,0
13.10.2018 06:00:00 8,6 7,8 5,6 10,6 13,6 14,3 0 0 4 2 N 1024,3 0 0,0
13.10.2018 05:00:00 8,5 7,7 6,0 11,0 13,9 14,3 0 0 6 3 N 1024,0 0 0,0
13.10.2018 04:00:00 8,9 8,5 6,0 11,3 14,2 14,3 4 2 5 3 E 1023,8 0 0,0
13.10.2018 03:00:00 8,8 8,3 6,5 11,7 14,5 14,3 4 2 6 3 E 1023,8 0 0,0
13.10.2018 02:00:00 9,3 8,6 5,6 12,2 14,9 14,3 0 0 2 1 N 1023,9 0 0,0
13.10.2018 01:00:00 9,9 9,3 6,4 12,8 15,2 14,3 0 0 4 2 N 1023,8 0 0,0
13.10.2018 00:00:00 10,9 9,4 7,3 13,4 15,6 14,3 0 0 4 2 N 1023,8 0 0,0
12.10.2018 23:00:00 11,6 10,0 8,0 14,0 15,9 14,3 0 0 6 4 N 1023,9 0 0,0
12.10.2018 22:00:00 12,3 10,0 8,5 14,8 16,3 14,3 5 3 10 5 S 1023,7 0 0,0
12.10.2018 21:00:00 12,3 9,3 9,3 15,8 16,7 14,3 6 4 9 5 SSE 1023,5 0 0,0
12.10.2018 20:00:00 14,9 10,2 10,7 17,1 17,0 14,3 5 3 9 5 S 1023,2 0 0,0
12.10.2018 19:00:00 17,0 10,8 12,5 18,8 17,1 14,3 4 2 6 3 SSE 1022,8 0 0,0

tt = temperature
td = dewpoint
tt 5cm = temperature 5cm
tt -5cm = temperature -5cm
tt -20cm = temperature -20cm
tt -100cm = temperature -100cm
ff = wind speed
fx = gusts
dd = wind direction
ppp = reduced air pressure
sd = sunshine duration
rr = precipitation

Next stations